sensor_id;sensor_type;location;lat;lon;timestamp;temperature;humidity
9323;DHT22;4700;48.822;9.270;2022-09-03T00:02:13;17.00;1.00
9323;DHT22;4700;48.822;9.270;2022-09-03T00:05:05;17.00;1.00
9323;DHT22;4700;48.822;9.270;2022-09-03T00:07:59;17.10;1.00
9323;DHT22;4700;48.822;9.270;2022-09-03T00:10:51;17.10;1.00
9323;DHT22;4700;48.822;9.270;2022-09-03T00:13:46;17.10;1.00
9323;DHT22;4700;48.822;9.270;2022-09-03T00:16:40;17.20;1.00
9323;DHT22;4700;48.822;9.270;2022-09-03T00:19:32;17.20;1.00
9323;DHT22;4700;48.822;9.270;2022-09-03T00:22:22;17.20;1.00
9323;DHT22;4700;48.822;9.270;2022-09-03T00:25:12;17.10;1.00
9323;DHT22;4700;48.822;9.270;2022-09-03T00:28:02;17.10;1.00
9323;DHT22;4700;48.822;9.270;2022-09-03T00:30:58;17.10;1.00
9323;DHT22;4700;48.822;9.270;2022-09-03T00:33:47;17.10;1.00
9323;DHT22;4700;48.822;9.270;2022-09-03T00:36:38;17.10;1.00
9323;DHT22;4700;48.822;9.270;2022-09-03T00:39:26;17.10;1.00
9323;DHT22;4700;48.822;9.270;2022-09-03T00:42:29;17.10;1.00
9323;DHT22;4700;48.822;9.270;2022-09-03T00:45:25;17.10;1.00
9323;DHT22;4700;48.822;9.270;2022-09-03T00:48:21;17.10;1.00
9323;DHT22;4700;48.822;9.270;2022-09-03T00:51:15;17.10;1.00
9323;DHT22;4700;48.822;9.270;2022-09-03T00:54:09;17.20;1.00
9323;DHT22;4700;48.822;9.270;2022-09-03T00:57:03;17.20;1.00
9323;DHT22;4700;48.822;9.270;2022-09-03T00:59:56;17.20;1.00
9323;DHT22;4700;48.822;9.270;2022-09-03T01:02:52;17.20;1.00
9323;DHT22;4700;48.822;9.270;2022-09-03T01:06:05;17.20;1.00
9323;DHT22;4700;48.822;9.270;2022-09-03T01:09:05;17.20;1.00
9323;DHT22;4700;48.822;9.270;2022-09-03T01:11:59;17.20;1.00
9323;DHT22;4700;48.822;9.270;2022-09-03T01:14:54;17.10;1.00
9323;DHT22;4700;48.822;9.270;2022-09-03T01:17:56;17.10;1.00
9323;DHT22;4700;48.822;9.270;2022-09-03T01:21:01;17.20;1.00
9323;DHT22;4700;48.822;9.270;2022-09-03T01:24:09;17.20;1.00
9323;DHT22;4700;48.822;9.270;2022-09-03T01:27:08;17.20;1.00
9323;DHT22;4700;48.822;9.270;2022-09-03T01:30:04;17.20;1.00
9323;DHT22;4700;48.822;9.270;2022-09-03T01:32:55;17.20;1.00
9323;DHT22;4700;48.822;9.270;2022-09-03T01:35:47;17.20;1.00
9323;DHT22;4700;48.822;9.270;2022-09-03T01:38:37;17.20;1.00
9323;DHT22;4700;48.822;9.270;2022-09-03T01:41:32;17.20;1.00
9323;DHT22;4700;48.822;9.270;2022-09-03T01:48:04;17.20;1.00
9323;DHT22;4700;48.822;9.270;2022-09-03T01:50:55;17.20;1.00
9323;DHT22;4700;48.822;9.270;2022-09-03T01:57:38;17.20;1.00
9323;DHT22;4700;48.822;9.270;2022-09-03T02:00:29;17.10;1.00
9323;DHT22;4700;48.822;9.270;2022-09-03T02:03:19;17.20;1.00
9323;DHT22;4700;48.822;9.270;2022-09-03T02:06:06;17.20;1.00
9323;DHT22;4700;48.822;9.270;2022-09-03T02:08:52;17.20;1.00
9323;DHT22;4700;48.822;9.270;2022-09-03T02:11:37;17.20;1.00
9323;DHT22;4700;48.822;9.270;2022-09-03T02:14:25;17.10;1.00
9323;DHT22;4700;48.822;9.270;2022-09-03T02:17:11;17.10;1.00
9323;DHT22;4700;48.822;9.270;2022-09-03T02:20:04;17.10;1.00
9323;DHT22;4700;48.822;9.270;2022-09-03T02:22:51;17.10;1.00
9323;DHT22;4700;48.822;9.270;2022-09-03T02:25:41;17.20;1.00
9323;DHT22;4700;48.822;9.270;2022-09-03T02:28:28;17.10;1.00
9323;DHT22;4700;48.822;9.270;2022-09-03T02:31:15;17.20;1.00
9323;DHT22;4700;48.822;9.270;2022-09-03T02:34:00;17.10;1.00
9323;DHT22;4700;48.822;9.270;2022-09-03T02:36:48;17.10;1.00
9323;DHT22;4700;48.822;9.270;2022-09-03T02:39:33;17.10;1.00
9323;DHT22;4700;48.822;9.270;2022-09-03T02:42:20;17.10;1.00
9323;DHT22;4700;48.822;9.270;2022-09-03T02:45:13;17.10;1.00
9323;DHT22;4700;48.822;9.270;2022-09-03T02:48:04;17.10;1.00
9323;DHT22;4700;48.822;9.270;2022-09-03T02:50:50;17.00;1.00
9323;DHT22;4700;48.822;9.270;2022-09-03T02:53:37;16.90;1.00
9323;DHT22;4700;48.822;9.270;2022-09-03T02:56:22;16.90;1.00
9323;DHT22;4700;48.822;9.270;2022-09-03T02:59:10;16.80;1.00
9323;DHT22;4700;48.822;9.270;2022-09-03T03:01:56;16.70;1.00
9323;DHT22;4700;48.822;9.270;2022-09-03T03:04:42;16.70;1.00
9323;DHT22;4700;48.822;9.270;2022-09-03T03:07:29;16.70;1.00
9323;DHT22;4700;48.822;9.270;2022-09-03T03:10:18;16.70;1.00
9323;DHT22;4700;48.822;9.270;2022-09-03T03:13:03;16.70;1.00
9323;DHT22;4700;48.822;9.270;2022-09-03T03:15:49;16.70;1.00
9323;DHT22;4700;48.822;9.270;2022-09-03T03:18:35;16.70;1.00
9323;DHT22;4700;48.822;9.270;2022-09-03T03:21:21;16.80;1.00
9323;DHT22;4700;48.822;9.270;2022-09-03T03:24:07;16.70;1.00
9323;DHT22;4700;48.822;9.270;2022-09-03T03:26:55;16.80;1.00
9323;DHT22;4700;48.822;9.270;2022-09-03T03:29:42;16.80;1.00
9323;DHT22;4700;48.822;9.270;2022-09-03T03:32:28;16.80;1.00
9323;DHT22;4700;48.822;9.270;2022-09-03T03:35:13;16.80;1.00
9323;DHT22;4700;48.822;9.270;2022-09-03T03:37:59;16.80;1.00
9323;DHT22;4700;48.822;9.270;2022-09-03T03:40:45;16.70;1.00
9323;DHT22;4700;48.822;9.270;2022-09-03T03:43:32;16.70;1.00
9323;DHT22;4700;48.822;9.270;2022-09-03T03:46:18;16.60;1.00
9323;DHT22;4700;48.822;9.270;2022-09-03T03:49:04;16.60;1.00
9323;DHT22;4700;48.822;9.270;2022-09-03T03:51:50;16.60;1.00
9323;DHT22;4700;48.822;9.270;2022-09-03T03:54:36;16.50;1.00
9323;DHT22;4700;48.822;9.270;2022-09-03T03:57:21;16.50;1.00
9323;DHT22;4700;48.822;9.270;2022-09-03T04:00:10;16.50;1.00
9323;DHT22;4700;48.822;9.270;2022-09-03T04:02:55;16.50;1.00
9323;DHT22;4700;48.822;9.270;2022-09-03T04:05:41;16.50;1.00
9323;DHT22;4700;48.822;9.270;2022-09-03T04:08:27;16.50;1.00
9323;DHT22;4700;48.822;9.270;2022-09-03T04:11:14;16.50;1.00
9323;DHT22;4700;48.822;9.270;2022-09-03T04:14:01;16.50;1.00
9323;DHT22;4700;48.822;9.270;2022-09-03T04:16:48;16.50;1.00
9323;DHT22;4700;48.822;9.270;2022-09-03T04:19:27;16.50;1.00
9323;DHT22;4700;48.822;9.270;2022-09-03T04:22:14;16.50;1.00
9323;DHT22;4700;48.822;9.270;2022-09-03T04:24:59;16.40;1.00
9323;DHT22;4700;48.822;9.270;2022-09-03T04:27:45;16.40;1.00
9323;DHT22;4700;48.822;9.270;2022-09-03T04:30:30;16.40;1.00
9323;DHT22;4700;48.822;9.270;2022-09-03T04:33:18;16.40;1.00
9323;DHT22;4700;48.822;9.270;2022-09-03T04:36:05;16.40;1.00
9323;DHT22;4700;48.822;9.270;2022-09-03T04:38:53;16.40;1.00
9323;DHT22;4700;48.822;9.270;2022-09-03T04:41:41;16.40;1.00
9323;DHT22;4700;48.822;9.270;2022-09-03T04:44:26;16.40;1.00
9323;DHT22;4700;48.822;9.270;2022-09-03T04:47:12;16.50;1.00
9323;DHT22;4700;48.822;9.270;2022-09-03T04:49:59;16.40;1.00
9323;DHT22;4700;48.822;9.270;2022-09-03T04:52:45;16.50;1.00
9323;DHT22;4700;48.822;9.270;2022-09-03T04:55:33;16.50;1.00
9323;DHT22;4700;48.822;9.270;2022-09-03T04:58:19;16.50;1.00
9323;DHT22;4700;48.822;9.270;2022-09-03T05:01:07;16.50;1.00
9323;DHT22;4700;48.822;9.270;2022-09-03T05:03:54;16.50;1.00
9323;DHT22;4700;48.822;9.270;2022-09-03T05:06:42;16.50;1.00
9323;DHT22;4700;48.822;9.270;2022-09-03T05:09:28;16.50;1.00
9323;DHT22;4700;48.822;9.270;2022-09-03T05:12:14;16.50;1.00
9323;DHT22;4700;48.822;9.270;2022-09-03T05:15:02;16.40;1.00
9323;DHT22;4700;48.822;9.270;2022-09-03T05:17:48;16.40;1.00
9323;DHT22;4700;48.822;9.270;2022-09-03T05:20:35;16.50;1.00
9323;DHT22;4700;48.822;9.270;2022-09-03T05:23:23;16.40;1.00
9323;DHT22;4700;48.822;9.270;2022-09-03T05:26:10;16.40;1.00
9323;DHT22;4700;48.822;9.270;2022-09-03T05:28:58;16.40;1.00
9323;DHT22;4700;48.822;9.270;2022-09-03T05:31:43;16.40;1.00
9323;DHT22;4700;48.822;9.270;2022-09-03T05:34:29;16.40;1.00
9323;DHT22;4700;48.822;9.270;2022-09-03T05:37:15;16.40;1.00
9323;DHT22;4700;48.822;9.270;2022-09-03T05:40:03;16.60;1.00
9323;DHT22;4700;48.822;9.270;2022-09-03T05:42:56;16.70;1.00
9323;DHT22;4700;48.822;9.270;2022-09-03T05:45:42;16.90;1.00
9323;DHT22;4700;48.822;9.270;2022-09-03T05:48:29;17.00;1.00
9323;DHT22;4700;48.822;9.270;2022-09-03T05:51:16;17.10;1.00
9323;DHT22;4700;48.822;9.270;2022-09-03T05:54:02;17.20;1.00
9323;DHT22;4700;48.822;9.270;2022-09-03T05:56:50;17.10;1.00
9323;DHT22;4700;48.822;9.270;2022-09-03T05:59:35;17.10;1.00
9323;DHT22;4700;48.822;9.270;2022-09-03T06:02:21;17.00;1.00
9323;DHT22;4700;48.822;9.270;2022-09-03T06:05:07;17.10;1.00
9323;DHT22;4700;48.822;9.270;2022-09-03T06:07:53;17.20;1.00
9323;DHT22;4700;48.822;9.270;2022-09-03T06:10:38;17.30;1.00
9323;DHT22;4700;48.822;9.270;2022-09-03T06:13:26;17.30;1.00
9323;DHT22;4700;48.822;9.270;2022-09-03T06:16:13;17.30;1.00
9323;DHT22;4700;48.822;9.270;2022-09-03T06:18:59;17.40;1.00
9323;DHT22;4700;48.822;9.270;2022-09-03T06:21:47;17.40;1.00
9323;DHT22;4700;48.822;9.270;2022-09-03T06:24:32;17.40;1.00
9323;DHT22;4700;48.822;9.270;2022-09-03T06:27:18;17.30;1.00
9323;DHT22;4700;48.822;9.270;2022-09-03T06:30:07;17.30;1.00
9323;DHT22;4700;48.822;9.270;2022-09-03T06:32:52;17.30;1.00
9323;DHT22;4700;48.822;9.270;2022-09-03T06:35:38;17.30;1.00
9323;DHT22;4700;48.822;9.270;2022-09-03T06:38:26;17.40;1.00
9323;DHT22;4700;48.822;9.270;2022-09-03T06:41:15;17.40;1.00
9323;DHT22;4700;48.822;9.270;2022-09-03T06:44:04;17.60;1.00
9323;DHT22;4700;48.822;9.270;2022-09-03T06:46:51;17.80;1.00
9323;DHT22;4700;48.822;9.270;2022-09-03T06:49:37;17.90;1.00
9323;DHT22;4700;48.822;9.270;2022-09-03T06:52:22;17.90;1.00
9323;DHT22;4700;48.822;9.270;2022-09-03T06:55:08;18.00;1.00
9323;DHT22;4700;48.822;9.270;2022-09-03T06:57:54;18.00;1.00
9323;DHT22;4700;48.822;9.270;2022-09-03T07:00:41;18.00;1.00
9323;DHT22;4700;48.822;9.270;2022-09-03T07:03:30;17.90;1.00
9323;DHT22;4700;48.822;9.270;2022-09-03T07:06:17;17.90;1.00
9323;DHT22;4700;48.822;9.270;2022-09-03T07:09:03;18.00;1.00
9323;DHT22;4700;48.822;9.270;2022-09-03T07:11:49;18.20;1.00
9323;DHT22;4700;48.822;9.270;2022-09-03T07:14:34;18.40;1.00
9323;DHT22;4700;48.822;9.270;2022-09-03T07:17:20;18.50;1.00
9323;DHT22;4700;48.822;9.270;2022-09-03T07:20:03;18.70;1.00
9323;DHT22;4700;48.822;9.270;2022-09-03T07:22:49;19.00;1.00
9323;DHT22;4700;48.822;9.270;2022-09-03T07:25:35;19.50;1.00
9323;DHT22;4700;48.822;9.270;2022-09-03T07:28:20;20.10;1.00
9323;DHT22;4700;48.822;9.270;2022-09-03T07:31:08;20.70;1.00
9323;DHT22;4700;48.822;9.270;2022-09-03T07:33:55;21.00;1.00
9323;DHT22;4700;48.822;9.270;2022-09-03T07:36:43;21.30;1.00
9323;DHT22;4700;48.822;9.270;2022-09-03T07:39:30;21.90;1.00
9323;DHT22;4700;48.822;9.270;2022-09-03T07:42:16;21.90;1.00
9323;DHT22;4700;48.822;9.270;2022-09-03T07:45:03;21.80;1.00
9323;DHT22;4700;48.822;9.270;2022-09-03T07:47:49;21.60;1.00
9323;DHT22;4700;48.822;9.270;2022-09-03T07:50:34;21.10;1.00
9323;DHT22;4700;48.822;9.270;2022-09-03T07:53:23;21.20;1.00
9323;DHT22;4700;48.822;9.270;2022-09-03T07:56:12;20.90;1.00
9323;DHT22;4700;48.822;9.270;2022-09-03T07:58:58;21.10;1.00
9323;DHT22;4700;48.822;9.270;2022-09-03T08:01:44;21.60;1.00
9323;DHT22;4700;48.822;9.270;2022-09-03T08:04:30;22.60;1.00
9323;DHT22;4700;48.822;9.270;2022-09-03T08:07:16;24.40;1.00
9323;DHT22;4700;48.822;9.270;2022-09-03T08:10:04;25.40;1.00
9323;DHT22;4700;48.822;9.270;2022-09-03T08:12:50;27.50;1.00
9323;DHT22;4700;48.822;9.270;2022-09-03T08:15:39;28.10;1.00
9323;DHT22;4700;48.822;9.270;2022-09-03T08:18:26;28.90;1.00
9323;DHT22;4700;48.822;9.270;2022-09-03T08:21:21;29.70;1.00
9323;DHT22;4700;48.822;9.270;2022-09-03T08:24:07;29.70;1.00
9323;DHT22;4700;48.822;9.270;2022-09-03T08:26:54;27.70;1.00
9323;DHT22;4700;48.822;9.270;2022-09-03T08:29:39;25.20;1.00
9323;DHT22;4700;48.822;9.270;2022-09-03T08:32:25;25.00;1.00
9323;DHT22;4700;48.822;9.270;2022-09-03T08:35:11;25.50;1.00
9323;DHT22;4700;48.822;9.270;2022-09-03T08:37:56;27.40;1.00
9323;DHT22;4700;48.822;9.270;2022-09-03T08:40:44;29.00;1.00
9323;DHT22;4700;48.822;9.270;2022-09-03T08:43:37;27.90;1.00
9323;DHT22;4700;48.822;9.270;2022-09-03T08:46:31;28.80;1.00
9323;DHT22;4700;48.822;9.270;2022-09-03T08:49:22;32.80;1.00
9323;DHT22;4700;48.822;9.270;2022-09-03T08:52:20;37.50;1.00
9323;DHT22;4700;48.822;9.270;2022-09-03T08:55:16;39.70;1.00
9323;DHT22;4700;48.822;9.270;2022-09-03T08:58:04;41.10;1.00
9323;DHT22;4700;48.822;9.270;2022-09-03T09:00:57;41.60;1.00
9323;DHT22;4700;48.822;9.270;2022-09-03T09:03:52;40.10;1.00
9323;DHT22;4700;48.822;9.270;2022-09-03T09:06:50;37.50;1.00
9323;DHT22;4700;48.822;9.270;2022-09-03T09:09:43;35.60;1.00
9323;DHT22;4700;48.822;9.270;2022-09-03T09:12:38;34.30;1.00
9323;DHT22;4700;48.822;9.270;2022-09-03T09:15:31;33.10;1.00
9323;DHT22;4700;48.822;9.270;2022-09-03T09:18:33;32.10;1.00
9323;DHT22;4700;48.822;9.270;2022-09-03T09:21:27;31.30;1.00
9323;DHT22;4700;48.822;9.270;2022-09-03T09:24:20;30.40;1.00
9323;DHT22;4700;48.822;9.270;2022-09-03T09:27:06;30.10;1.00
9323;DHT22;4700;48.822;9.270;2022-09-03T09:29:53;29.00;1.00
9323;DHT22;4700;48.822;9.270;2022-09-03T09:32:39;28.10;1.00
9323;DHT22;4700;48.822;9.270;2022-09-03T09:35:28;27.40;1.00
9323;DHT22;4700;48.822;9.270;2022-09-03T09:38:13;26.70;1.00
9323;DHT22;4700;48.822;9.270;2022-09-03T09:41:08;26.10;1.00
9323;DHT22;4700;48.822;9.270;2022-09-03T09:43:59;25.30;1.00
9323;DHT22;4700;48.822;9.270;2022-09-03T09:46:46;24.60;1.00
9323;DHT22;4700;48.822;9.270;2022-09-03T09:49:34;24.50;1.00
9323;DHT22;4700;48.822;9.270;2022-09-03T09:52:24;25.30;1.00
9323;DHT22;4700;48.822;9.270;2022-09-03T09:55:15;27.70;1.00
9323;DHT22;4700;48.822;9.270;2022-09-03T09:58:06;29.50;1.00
9323;DHT22;4700;48.822;9.270;2022-09-03T10:01:02;32.10;1.00
9323;DHT22;4700;48.822;9.270;2022-09-03T10:03:50;34.20;1.00
9323;DHT22;4700;48.822;9.270;2022-09-03T10:06:38;33.10;1.00
9323;DHT22;4700;48.822;9.270;2022-09-03T10:09:41;31.90;1.00
9323;DHT22;4700;48.822;9.270;2022-09-03T10:12:34;30.20;1.00
9323;DHT22;4700;48.822;9.270;2022-09-03T10:15:26;29.10;1.00
9323;DHT22;4700;48.822;9.270;2022-09-03T10:20:47;28.30;1.00
9323;DHT22;4700;48.822;9.270;2022-09-03T10:23:43;27.90;1.00
9323;DHT22;4700;48.822;9.270;2022-09-03T10:26:35;27.50;1.00
9323;DHT22;4700;48.822;9.270;2022-09-03T10:29:23;27.10;1.00
9323;DHT22;4700;48.822;9.270;2022-09-03T10:32:21;26.80;1.00
9323;DHT22;4700;48.822;9.270;2022-09-03T10:35:27;26.70;1.00
9323;DHT22;4700;48.822;9.270;2022-09-03T10:38:19;26.30;1.00
9323;DHT22;4700;48.822;9.270;2022-09-03T10:41:16;26.40;1.00
9323;DHT22;4700;48.822;9.270;2022-09-03T10:44:17;26.40;1.00
9323;DHT22;4700;48.822;9.270;2022-09-03T10:47:18;26.70;1.00
9323;DHT22;4700;48.822;9.270;2022-09-03T10:50:12;26.90;1.00
9323;DHT22;4700;48.822;9.270;2022-09-03T10:53:06;26.80;1.00
9323;DHT22;4700;48.822;9.270;2022-09-03T10:55:59;26.60;1.00
9323;DHT22;4700;48.822;9.270;2022-09-03T10:59:02;26.90;1.00
9323;DHT22;4700;48.822;9.270;2022-09-03T11:01:55;26.90;1.00
9323;DHT22;4700;48.822;9.270;2022-09-03T11:04:50;26.60;1.00
9323;DHT22;4700;48.822;9.270;2022-09-03T11:07:40;26.70;1.00
9323;DHT22;4700;48.822;9.270;2022-09-03T11:10:29;26.50;1.00
9323;DHT22;4700;48.822;9.270;2022-09-03T11:13:20;26.50;1.00
9323;DHT22;4700;48.822;9.270;2022-09-03T11:16:10;26.50;1.00
9323;DHT22;4700;48.822;9.270;2022-09-03T11:19:03;26.60;1.00
9323;DHT22;4700;48.822;9.270;2022-09-03T11:21:50;26.80;1.00
9323;DHT22;4700;48.822;9.270;2022-09-03T11:24:39;27.00;1.00
9323;DHT22;4700;48.822;9.270;2022-09-03T11:30:52;26.70;1.00
9323;DHT22;4700;48.822;9.270;2022-09-03T11:33:44;26.70;1.00
9323;DHT22;4700;48.822;9.270;2022-09-03T11:36:37;26.60;1.00
9323;DHT22;4700;48.822;9.270;2022-09-03T11:39:32;25.60;1.00
9323;DHT22;4700;48.822;9.270;2022-09-03T11:42:29;25.70;1.00
9323;DHT22;4700;48.822;9.270;2022-09-03T11:45:23;26.00;1.00
9323;DHT22;4700;48.822;9.270;2022-09-03T11:48:35;26.20;1.00
9323;DHT22;4700;48.822;9.270;2022-09-03T11:51:30;25.50;1.00
9323;DHT22;4700;48.822;9.270;2022-09-03T11:54:25;24.80;1.00
9323;DHT22;4700;48.822;9.270;2022-09-03T11:57:13;24.40;1.00
9323;DHT22;4700;48.822;9.270;2022-09-03T12:00:07;24.90;1.00
9323;DHT22;4700;48.822;9.270;2022-09-03T12:02:56;25.30;1.00
9323;DHT22;4700;48.822;9.270;2022-09-03T12:05:47;25.40;1.00
9323;DHT22;4700;48.822;9.270;2022-09-03T12:09:07;25.30;1.00
9323;DHT22;4700;48.822;9.270;2022-09-03T12:12:10;25.10;1.00
9323;DHT22;4700;48.822;9.270;2022-09-03T12:15:04;25.00;1.00
9323;DHT22;4700;48.822;9.270;2022-09-03T12:17:53;24.80;1.00
9323;DHT22;4700;48.822;9.270;2022-09-03T12:21:01;24.50;1.00
9323;DHT22;4700;48.822;9.270;2022-09-03T12:23:48;24.20;1.00
9323;DHT22;4700;48.822;9.270;2022-09-03T12:26:40;24.00;1.00
9323;DHT22;4700;48.822;9.270;2022-09-03T12:29:29;23.90;1.00
9323;DHT22;4700;48.822;9.270;2022-09-03T12:32:15;23.70;1.00
9323;DHT22;4700;48.822;9.270;2022-09-03T12:35:11;23.50;1.00
9323;DHT22;4700;48.822;9.270;2022-09-03T12:37:57;23.30;1.00
9323;DHT22;4700;48.822;9.270;2022-09-03T12:40:43;23.20;1.00
9323;DHT22;4700;48.822;9.270;2022-09-03T12:43:29;23.00;1.00
9323;DHT22;4700;48.822;9.270;2022-09-03T12:46:16;22.80;1.00
9323;DHT22;4700;48.822;9.270;2022-09-03T12:49:05;22.50;1.00
9323;DHT22;4700;48.822;9.270;2022-09-03T12:51:51;22.20;1.00
9323;DHT22;4700;48.822;9.270;2022-09-03T12:54:50;22.00;1.00
9323;DHT22;4700;48.822;9.270;2022-09-03T12:57:41;21.70;1.00
9323;DHT22;4700;48.822;9.270;2022-09-03T13:00:30;21.40;1.00
9323;DHT22;4700;48.822;9.270;2022-09-03T13:03:21;21.20;1.00
9323;DHT22;4700;48.822;9.270;2022-09-03T13:06:10;20.90;1.00
9323;DHT22;4700;48.822;9.270;2022-09-03T13:09:00;20.60;1.00
9323;DHT22;4700;48.822;9.270;2022-09-03T13:11:47;20.30;1.00
9323;DHT22;4700;48.822;9.270;2022-09-03T13:14:42;20.10;1.00
9323;DHT22;4700;48.822;9.270;2022-09-03T13:17:46;20.00;1.00
9323;DHT22;4700;48.822;9.270;2022-09-03T13:20:47;19.70;1.00
9323;DHT22;4700;48.822;9.270;2022-09-03T13:24:00;19.40;1.00
9323;DHT22;4700;48.822;9.270;2022-09-03T13:26:59;19.20;1.00
9323;DHT22;4700;48.822;9.270;2022-09-03T13:29:59;18.90;1.00
9323;DHT22;4700;48.822;9.270;2022-09-03T13:32:54;18.70;1.00
9323;DHT22;4700;48.822;9.270;2022-09-03T13:35:46;18.60;1.00
9323;DHT22;4700;48.822;9.270;2022-09-03T13:38:38;18.60;1.00
9323;DHT22;4700;48.822;9.270;2022-09-03T13:41:33;18.70;1.00
9323;DHT22;4700;48.822;9.270;2022-09-03T13:44:33;19.00;1.00
9323;DHT22;4700;48.822;9.270;2022-09-03T13:47:27;19.30;1.00
9323;DHT22;4700;48.822;9.270;2022-09-03T13:50:18;19.40;1.00
9323;DHT22;4700;48.822;9.270;2022-09-03T13:53:17;19.50;1.00
9323;DHT22;4700;48.822;9.270;2022-09-03T13:56:12;20.00;1.00
9323;DHT22;4700;48.822;9.270;2022-09-03T13:59:04;20.40;1.00
9323;DHT22;4700;48.822;9.270;2022-09-03T14:02:17;20.70;1.00
9323;DHT22;4700;48.822;9.270;2022-09-03T14:05:08;20.50;1.00
9323;DHT22;4700;48.822;9.270;2022-09-03T14:08:04;20.60;1.00
9323;DHT22;4700;48.822;9.270;2022-09-03T14:11:02;20.60;1.00
9323;DHT22;4700;48.822;9.270;2022-09-03T14:14:05;20.40;1.00
9323;DHT22;4700;48.822;9.270;2022-09-03T14:16:58;20.30;1.00
9323;DHT22;4700;48.822;9.270;2022-09-03T14:19:47;20.30;1.00
9323;DHT22;4700;48.822;9.270;2022-09-03T14:22:47;20.30;1.00
9323;DHT22;4700;48.822;9.270;2022-09-03T14:25:34;20.30;1.00
9323;DHT22;4700;48.822;9.270;2022-09-03T14:28:29;20.50;1.00
9323;DHT22;4700;48.822;9.270;2022-09-03T14:31:23;20.70;1.00
9323;DHT22;4700;48.822;9.270;2022-09-03T14:34:16;20.90;1.00
9323;DHT22;4700;48.822;9.270;2022-09-03T14:37:08;21.10;1.00
9323;DHT22;4700;48.822;9.270;2022-09-03T14:40:08;21.10;1.00
9323;DHT22;4700;48.822;9.270;2022-09-03T14:43:10;21.00;1.00
9323;DHT22;4700;48.822;9.270;2022-09-03T14:46:20;20.90;1.00
9323;DHT22;4700;48.822;9.270;2022-09-03T14:49:17;20.70;1.00
9323;DHT22;4700;48.822;9.270;2022-09-03T14:52:20;20.50;1.00
9323;DHT22;4700;48.822;9.270;2022-09-03T14:55:20;20.50;1.00
9323;DHT22;4700;48.822;9.270;2022-09-03T14:58:20;20.30;1.00
9323;DHT22;4700;48.822;9.270;2022-09-03T15:01:11;20.20;1.00
9323;DHT22;4700;48.822;9.270;2022-09-03T15:04:37;20.10;1.00
9323;DHT22;4700;48.822;9.270;2022-09-03T15:07:32;20.10;1.00
9323;DHT22;4700;48.822;9.270;2022-09-03T15:10:29;20.20;1.00
9323;DHT22;4700;48.822;9.270;2022-09-03T15:13:22;20.20;1.00
9323;DHT22;4700;48.822;9.270;2022-09-03T15:16:30;20.30;1.00
9323;DHT22;4700;48.822;9.270;2022-09-03T15:19:42;20.40;1.00
9323;DHT22;4700;48.822;9.270;2022-09-03T15:22:52;20.60;1.00
9323;DHT22;4700;48.822;9.270;2022-09-03T15:25:54;20.70;1.00
9323;DHT22;4700;48.822;9.270;2022-09-03T15:28:52;20.80;1.00
9323;DHT22;4700;48.822;9.270;2022-09-03T15:31:46;21.10;1.00
9323;DHT22;4700;48.822;9.270;2022-09-03T15:34:45;21.20;1.00
9323;DHT22;4700;48.822;9.270;2022-09-03T15:37:36;21.60;1.00
9323;DHT22;4700;48.822;9.270;2022-09-03T15:40:27;22.00;1.00
9323;DHT22;4700;48.822;9.270;2022-09-03T15:43:17;22.20;1.00
9323;DHT22;4700;48.822;9.270;2022-09-03T15:46:06;22.30;1.00
9323;DHT22;4700;48.822;9.270;2022-09-03T15:48:59;22.20;1.00
9323;DHT22;4700;48.822;9.270;2022-09-03T15:51:58;22.00;1.00
9323;DHT22;4700;48.822;9.270;2022-09-03T15:54:55;21.90;1.00
9323;DHT22;4700;48.822;9.270;2022-09-03T15:57:49;21.90;1.00
9323;DHT22;4700;48.822;9.270;2022-09-03T16:00:50;21.90;1.00
9323;DHT22;4700;48.822;9.270;2022-09-03T16:03:42;21.90;1.00
9323;DHT22;4700;48.822;9.270;2022-09-03T16:06:40;21.70;1.00
9323;DHT22;4700;48.822;9.270;2022-09-03T16:09:47;21.90;1.00
9323;DHT22;4700;48.822;9.270;2022-09-03T16:12:44;21.90;1.00
9323;DHT22;4700;48.822;9.270;2022-09-03T16:15:37;21.90;1.00
9323;DHT22;4700;48.822;9.270;2022-09-03T16:18:26;21.70;1.00
9323;DHT22;4700;48.822;9.270;2022-09-03T16:21:21;21.60;1.00
9323;DHT22;4700;48.822;9.270;2022-09-03T16:24:14;21.60;1.00
9323;DHT22;4700;48.822;9.270;2022-09-03T16:27:08;21.60;1.00
9323;DHT22;4700;48.822;9.270;2022-09-03T16:29:57;21.60;1.00
9323;DHT22;4700;48.822;9.270;2022-09-03T16:32:57;21.50;1.00
9323;DHT22;4700;48.822;9.270;2022-09-03T16:35:54;21.30;1.00
9323;DHT22;4700;48.822;9.270;2022-09-03T16:38:49;21.20;1.00
9323;DHT22;4700;48.822;9.270;2022-09-03T16:41:46;21.10;1.00
9323;DHT22;4700;48.822;9.270;2022-09-03T16:44:46;20.90;1.00
9323;DHT22;4700;48.822;9.270;2022-09-03T16:47:45;20.70;1.00
9323;DHT22;4700;48.822;9.270;2022-09-03T16:50:45;20.60;1.00
9323;DHT22;4700;48.822;9.270;2022-09-03T16:57:00;20.40;1.00
9323;DHT22;4700;48.822;9.270;2022-09-03T17:00:04;20.50;1.00
9323;DHT22;4700;48.822;9.270;2022-09-03T17:06:39;20.20;1.00
9323;DHT22;4700;48.822;9.270;2022-09-03T17:09:40;20.10;1.00
9323;DHT22;4700;48.822;9.270;2022-09-03T17:12:36;20.10;1.00
9323;DHT22;4700;48.822;9.270;2022-09-03T17:15:31;20.00;1.00
9323;DHT22;4700;48.822;9.270;2022-09-03T17:18:31;20.00;1.00
9323;DHT22;4700;48.822;9.270;2022-09-03T17:21:31;20.00;1.00
9323;DHT22;4700;48.822;9.270;2022-09-03T17:24:35;20.10;1.00
9323;DHT22;4700;48.822;9.270;2022-09-03T17:27:42;20.10;1.00
9323;DHT22;4700;48.822;9.270;2022-09-03T17:30:40;20.00;1.00
9323;DHT22;4700;48.822;9.270;2022-09-03T17:33:41;20.00;1.00
9323;DHT22;4700;48.822;9.270;2022-09-03T17:36:32;19.90;1.00
9323;DHT22;4700;48.822;9.270;2022-09-03T17:39:43;19.80;1.00
9323;DHT22;4700;48.822;9.270;2022-09-03T17:42:32;19.70;1.00
9323;DHT22;4700;48.822;9.270;2022-09-03T17:45:31;19.70;1.00
9323;DHT22;4700;48.822;9.270;2022-09-03T17:48:48;19.70;1.00
9323;DHT22;4700;48.822;9.270;2022-09-03T17:51:40;19.60;1.00
9323;DHT22;4700;48.822;9.270;2022-09-03T17:54:37;19.50;1.00
9323;DHT22;4700;48.822;9.270;2022-09-03T17:57:28;19.50;1.00
9323;DHT22;4700;48.822;9.270;2022-09-03T18:00:22;19.50;1.00
9323;DHT22;4700;48.822;9.270;2022-09-03T18:03:15;19.40;1.00
9323;DHT22;4700;48.822;9.270;2022-09-03T18:06:08;19.40;1.00
9323;DHT22;4700;48.822;9.270;2022-09-03T18:08:58;19.30;1.00
9323;DHT22;4700;48.822;9.270;2022-09-03T18:11:48;19.30;1.00
9323;DHT22;4700;48.822;9.270;2022-09-03T18:14:39;19.30;1.00
9323;DHT22;4700;48.822;9.270;2022-09-03T18:17:32;19.20;1.00
9323;DHT22;4700;48.822;9.270;2022-09-03T18:20:20;19.20;1.00
9323;DHT22;4700;48.822;9.270;2022-09-03T18:23:30;19.10;1.00
9323;DHT22;4700;48.822;9.270;2022-09-03T18:26:38;19.10;1.00
9323;DHT22;4700;48.822;9.270;2022-09-03T18:29:45;19.00;1.00
9323;DHT22;4700;48.822;9.270;2022-09-03T18:32:50;18.90;1.00
9323;DHT22;4700;48.822;9.270;2022-09-03T18:35:54;18.90;1.00
9323;DHT22;4700;48.822;9.270;2022-09-03T18:39:05;18.80;1.00
9323;DHT22;4700;48.822;9.270;2022-09-03T18:42:13;18.70;1.00
9323;DHT22;4700;48.822;9.270;2022-09-03T18:45:26;18.70;1.00
9323;DHT22;4700;48.822;9.270;2022-09-03T18:48:39;18.60;1.00
9323;DHT22;4700;48.822;9.270;2022-09-03T18:51:55;18.60;1.00
9323;DHT22;4700;48.822;9.270;2022-09-03T18:55:09;18.60;1.00
9323;DHT22;4700;48.822;9.270;2022-09-03T18:58:24;18.50;1.00
9323;DHT22;4700;48.822;9.270;2022-09-03T19:01:34;18.60;1.00
9323;DHT22;4700;48.822;9.270;2022-09-03T19:04:49;18.60;1.00
9323;DHT22;4700;48.822;9.270;2022-09-03T19:08:01;18.50;1.00
9323;DHT22;4700;48.822;9.270;2022-09-03T19:11:33;18.50;1.00
9323;DHT22;4700;48.822;9.270;2022-09-03T19:14:45;18.50;1.00
9323;DHT22;4700;48.822;9.270;2022-09-03T19:18:07;18.50;1.00
9323;DHT22;4700;48.822;9.270;2022-09-03T19:21:19;18.40;1.00
9323;DHT22;4700;48.822;9.270;2022-09-03T19:24:27;18.40;1.00
9323;DHT22;4700;48.822;9.270;2022-09-03T19:27:37;18.40;1.00